Time;durP1;ratioP1;P1;durP2;ratioP2;P2;SDS_P1;SDS_P2;PMS_P1;PMS_P2;Temp;Humidity;BMP_temperature;BMP_pressure;BME280_temperature;BME280_humidity;BME280_pressure;Samples;Min_cycle;Max_cycle;Signal;HPM_P1;HPM_P2
2023/03/28 00:01:10;;;;;;;5.70;0.73;;;;;;;;;;4988661;28;20034;-78
2023/03/28 00:03:41;;;;;;;3.47;0.70;;;;;;;;;;4990081;28;20075;-79
2023/03/28 00:06:57;;;;;;;1.55;0.60;;;;;;;;;;4989823;28;20420;-78
2023/03/28 00:09:25;;;;;;;4.05;0.88;;;;;;;;;;4989334;28;20046;-78
2023/03/28 00:11:53;;;;;;;5.68;0.70;;;;;;;;;;4989971;28;20401;-78
2023/03/28 00:14:21;;;;;;;4.32;1.10;;;;;;;;;;4988698;28;20052;-78
2023/03/28 00:16:51;;;;;;;3.33;0.65;;;;;;;;;;4989026;28;20125;-78
2023/03/28 00:19:19;;;;;;;2.58;1.17;;;;;;;;;;4989855;28;20066;-78
2023/03/28 00:21:49;;;;;;;2.85;0.70;;;;;;;;;;4990050;28;20050;-78
2023/03/28 00:24:20;;;;;;;5.10;0.95;;;;;;;;;;4988609;28;20037;-78
2023/03/28 00:26:53;;;;;;;2.63;0.73;;;;;;;;;;4986713;28;20082;-78
2023/03/28 00:29:21;;;;;;;4.10;0.63;;;;;;;;;;4981561;28;20050;-78
2023/03/28 00:32:15;;;;;;;3.42;0.77;;;;;;;;;;4986423;28;20095;-78
2023/03/28 00:34:43;;;;;;;5.15;0.88;;;;;;;;;;4986046;28;20043;-78
2023/03/28 00:37:16;;;;;;;2.20;0.45;;;;;;;;;;4989115;28;20037;-78
2023/03/28 00:39:48;;;;;;;7.90;0.77;;;;;;;;;;5002728;28;20540;-78
2023/03/28 00:42:21;;;;;;;6.28;0.88;;;;;;;;;;4974387;28;20057;-78
2023/03/28 00:45:15;;;;;;;3.60;0.93;;;;;;;;;;4985593;28;20038;-79
2023/03/28 00:48:00;;;;;;;2.50;1.08;;;;;;;;;;4972294;28;20527;-78
2023/03/28 00:50:38;;;;;;;3.65;1.27;;;;;;;;;;4985224;28;20436;-79
2023/03/28 00:53:25;;;;;;;3.38;1.63;;;;;;;;;;4988500;28;20046;-78
2023/03/28 00:56:04;;;;;;;5.53;0.70;;;;;;;;;;4970136;28;20214;-78
2023/03/28 00:58:41;;;;;;;4.15;0.73;;;;;;;;;;4979125;28;20043;-78
2023/03/28 01:01:12;;;;;;;2.53;0.70;;;;;;;;;;4961852;28;20500;-78
2023/03/28 01:03:48;;;;;;;2.67;0.80;;;;;;;;;;4988316;28;20042;-78
2023/03/28 01:06:15;;;;;;;2.17;0.68;;;;;;;;;;5004438;28;20048;-78
2023/03/28 01:08:46;;;;;;;2.42;0.85;;;;;;;;;;4987239;28;20039;-78
2023/03/28 01:11:16;;;;;;;3.53;0.57;;;;;;;;;;4948759;28;20554;-78
2023/03/28 01:13:49;;;;;;;1.95;0.43;;;;;;;;;;4972803;28;20145;-78
2023/03/28 01:19:41;;;;;;;2.00;0.60;;;;;;;;;;4994422;28;20417;-78
2023/03/28 01:22:33;;;;;;;1.35;0.57;;;;;;;;;;5007456;28;20104;-78
2023/03/28 01:25:19;;;;;;;7.88;0.88;;;;;;;;;;5007577;28;20134;-78
2023/03/28 01:28:08;;;;;;;1.88;0.65;;;;;;;;;;5007265;28;20066;-78
2023/03/28 01:31:02;;;;;;;2.05;0.70;;;;;;;;;;4991189;28;20126;-78
2023/03/28 01:34:37;;;;;;;;;;;;;;;;;;5006607;28;20125;-78
2023/03/28 01:37:18;;;;;;;5.15;0.50;;;;;;;;;;5007528;28;19982;-78
2023/03/28 01:39:59;;;;;;;1.13;0.50;;;;;;;;;;5008403;28;20140;-78
2023/03/28 01:42:49;;;;;;;0.30;0.20;;;;;;;;;;4991032;28;20142;-78
2023/03/28 01:45:32;;;;;;;1.67;0.77;;;;;;;;;;5007056;28;20050;-78
2023/03/28 01:48:43;;;;;;;3.70;0.70;;;;;;;;;;5006086;28;20125;-78
2023/03/28 01:51:41;;;;;;;2.90;0.68;;;;;;;;;;4954121;28;20039;-78
2023/03/28 01:54:30;;;;;;;2.83;0.68;;;;;;;;;;4968573;28;20123;-78
2023/03/28 01:57:51;;;;;;;3.38;0.65;;;;;;;;;;4968088;28;20573;-78
2023/03/28 02:01:03;;;;;;;1.35;0.50;;;;;;;;;;4948055;28;20039;-78
2023/03/28 02:03:35;;;;;;;0.88;0.35;;;;;;;;;;4946913;28;20106;-78
2023/03/28 02:06:37;;;;;;;2.40;0.52;;;;;;;;;;4925897;28;20161;-78
2023/03/28 02:09:36;;;;;;;7.20;1.02;;;;;;;;;;4912754;28;20044;-78
2023/03/28 02:12:31;;;;;;;0.68;0.40;;;;;;;;;;4927174;28;20087;-78
2023/03/28 02:15:15;;;;;;;1.02;0.40;;;;;;;;;;4927157;28;20490;-78
2023/03/28 02:18:19;;;;;;;0.38;0.30;;;;;;;;;;4929479;28;20457;-78
2023/03/28 02:21:26;;;;;;;1.55;1.05;;;;;;;;;;4925907;28;20110;-78
2023/03/28 02:24:08;;;;;;;4.47;0.73;;;;;;;;;;4914375;28;20413;-78
2023/03/28 02:26:53;;;;;;;0.88;0.43;;;;;;;;;;4948943;28;20043;-78
2023/03/28 02:29:37;;;;;;;1.23;0.57;;;;;;;;;;4940504;28;20226;-78
2023/03/28 02:32:35;;;;;;;0.47;0.40;;;;;;;;;;4958189;28;20498;-78
2023/03/28 02:35:05;;;;;;;6.15;0.68;;;;;;;;;;4939169;28;20074;-78
2023/03/28 02:37:57;;;;;;;1.30;0.55;;;;;;;;;;4940850;28;20066;-78
2023/03/28 02:41:13;;;;;;;3.05;0.40;;;;;;;;;;4956314;28;20556;-78
2023/03/28 02:43:41;;;;;;;4.13;1.23;;;;;;;;;;4949313;28;20051;-78
2023/03/28 02:46:21;;;;;;;3.05;0.60;;;;;;;;;;4956403;28;20051;-78
2023/03/28 02:49:00;;;;;;;2.17;0.80;;;;;;;;;;4955198;28;20054;-78
2023/03/28 02:51:39;;;;;;;1.60;0.70;;;;;;;;;;4979098;28;20051;-78
2023/03/28 02:54:26;;;;;;;0.93;0.50;;;;;;;;;;4957334;28;20409;-78
2023/03/28 02:57:35;;;;;;;1.52;0.55;;;;;;;;;;4984407;28;20042;-78
2023/03/28 03:00:18;;;;;;;1.02;0.50;;;;;;;;;;4970968;28;20046;-78
2023/03/28 03:02:49;;;;;;;3.70;0.88;;;;;;;;;;5000544;28;20058;-78
2023/03/28 03:05:19;;;;;;;2.92;0.45;;;;;;;;;;4960289;28;20415;-78
2023/03/28 03:07:51;;;;;;;1.90;0.55;;;;;;;;;;4968879;28;20045;-78
2023/03/28 03:10:23;;;;;;;2.60;0.73;;;;;;;;;;4961302;28;20053;-78
2023/03/28 03:12:51;;;;;;;2.60;0.90;;;;;;;;;;4968096;28;20034;-78
2023/03/28 03:15:24;;;;;;;1.88;0.95;;;;;;;;;;4970268;28;20527;-78
2023/03/28 03:18:23;;;;;;;3.42;0.65;;;;;;;;;;4985267;28;20052;-78
2023/03/28 03:20:51;;;;;;;2.42;0.60;;;;;;;;;;4974658;28;20378;-78
2023/03/28 03:23:46;;;;;;;2.00;0.60;;;;;;;;;;4958559;28;20519;-78
2023/03/28 03:26:43;;;;;;;3.67;0.80;;;;;;;;;;5001102;28;20038;-78
2023/03/28 03:29:17;;;;;;;0.98;0.50;;;;;;;;;;4977914;28;20129;-78
2023/03/28 03:31:45;;;;;;;0.88;0.52;;;;;;;;;;4987010;28;20096;-78
2023/03/28 03:34:40;;;;;;;1.45;0.60;;;;;;;;;;4970299;28;20504;-78
2023/03/28 03:37:16;;;;;;;0.85;0.57;;;;;;;;;;4988114;28;20535;-78
2023/03/28 03:39:45;;;;;;;2.47;0.70;;;;;;;;;;4972484;28;20049;-78
2023/03/28 03:42:15;;;;;;;5.57;0.77;;;;;;;;;;4985421;28;20134;-78
2023/03/28 03:44:47;;;;;;;1.15;0.60;;;;;;;;;;4984209;28;20038;-78
2023/03/28 03:47:43;;;;;;;2.92;0.85;;;;;;;;;;4999566;28;20037;-78
2023/03/28 03:50:12;;;;;;;0.93;0.50;;;;;;;;;;4986548;28;20129;-78
2023/03/28 03:53:05;;;;;;;1.25;0.80;;;;;;;;;;4973123;28;20046;-78
2023/03/28 03:55:39;;;;;;;2.60;0.98;;;;;;;;;;4951785;28;20069;-78
2023/03/28 03:58:07;;;;;;;0.90;0.50;;;;;;;;;;4983930;28;20496;-78
2023/03/28 04:00:37;;;;;;;4.60;0.63;;;;;;;;;;4970013;28;20071;-78
2023/03/28 04:03:11;;;;;;;3.67;0.90;;;;;;;;;;4966246;28;20042;-78
2023/03/28 04:06:18;;;;;;;4.47;1.10;;;;;;;;;;4985523;28;20129;-78
2023/03/28 04:08:51;;;;;;;1.38;0.75;;;;;;;;;;5001256;28;20397;-78
2023/03/28 04:11:34;;;;;;;2.00;0.60;;;;;;;;;;4969506;28;20404;-78
2023/03/28 04:14:01;;;;;;;6.22;1.05;;;;;;;;;;4968067;28;20087;-78
2023/03/28 04:16:33;;;;;;;2.75;0.70;;;;;;;;;;4960534;28;20039;-78
2023/03/28 04:19:12;;;;;;;2.20;1.00;;;;;;;;;;4967743;28;20030;-78
2023/03/28 04:21:41;;;;;;;3.50;0.80;;;;;;;;;;4968988;28;20141;-78
2023/03/28 04:24:23;;;;;;;1.55;0.73;;;;;;;;;;4983892;28;20038;-78
2023/03/28 04:27:17;;;;;;;2.95;0.70;;;;;;;;;;4985060;28;20035;-78
2023/03/28 04:29:48;;;;;;;1.13;0.57;;;;;;;;;;4999203;28;20049;-78
2023/03/28 04:32:34;;;;;;;2.08;0.60;;;;;;;;;;4978869;28;20058;-78
2023/03/28 04:38:06;;;;;;;2.40;0.98;;;;;;;;;;4979993;28;20179;-78
2023/03/28 04:40:38;;;;;;;1.83;0.80;;;;;;;;;;4987532;28;20316;-78
2023/03/28 04:43:24;;;;;;;3.50;0.90;;;;;;;;;;4984426;28;20046;-78
2023/03/28 04:45:57;;;;;;;4.07;0.80;;;;;;;;;;4969447;28;20045;-78
2023/03/28 04:48:25;;;;;;;4.50;1.17;;;;;;;;;;4974643;28;20050;-78
2023/03/28 04:51:19;;;;;;;1.67;0.93;;;;;;;;;;4987658;28;20042;-78
2023/03/28 04:54:13;;;;;;;2.63;1.02;;;;;;;;;;4976397;28;20043;-78
2023/03/28 04:56:49;;;;;;;1.92;0.90;;;;;;;;;;4988314;28;20042;-78
2023/03/28 04:59:43;;;;;;;2.63;1.00;;;;;;;;;;4991881;28;20034;-78
2023/03/28 05:02:19;;;;;;;3.75;1.20;;;;;;;;;;4985636;28;20400;-78
2023/03/28 05:05:05;;;;;;;2.67;1.20;;;;;;;;;;4988001;28;20046;-78
2023/03/28 05:07:33;;;;;;;4.72;1.25;;;;;;;;;;4987997;28;20042;-78
2023/03/28 05:10:05;;;;;;;4.55;1.17;;;;;;;;;;5003526;28;20034;-79
2023/03/28 05:12:42;;;;;;;3.38;1.00;;;;;;;;;;4978878;28;20072;-78
2023/03/28 05:15:09;;;;;;;4.80;1.20;;;;;;;;;;4989560;28;20126;-78
2023/03/28 05:17:59;;;;;;;2.92;1.17;;;;;;;;;;4970891;28;20026;-78
2023/03/28 05:20:31;;;;;;;2.55;1.10;;;;;;;;;;4961579;28;20456;-77
2023/03/28 05:23:00;;;;;;;2.00;1.17;;;;;;;;;;4945605;28;20156;-80
2023/03/28 05:25:29;;;;;;;3.45;1.17;;;;;;;;;;5001824;28;20035;-80
2023/03/28 05:27:57;;;;;;;2.75;1.20;;;;;;;;;;4987274;28;20130;-80
2023/03/28 05:30:25;;;;;;;2.90;1.15;;;;;;;;;;5001837;28;20038;-80
2023/03/28 05:32:58;;;;;;;1.60;1.13;;;;;;;;;;4972493;28;20129;-80
2023/03/28 05:35:27;;;;;;;1.65;0.98;;;;;;;;;;4986944;28;20464;-79
2023/03/28 05:37:57;;;;;;;2.72;1.25;;;;;;;;;;4970380;28;20054;-81
2023/03/28 05:40:25;;;;;;;4.63;1.55;;;;;;;;;;5000802;28;20030;-80
2023/03/28 05:42:53;;;;;;;3.25;1.65;;;;;;;;;;4986923;28;20042;-80
2023/03/28 05:45:21;;;;;;;5.18;1.52;;;;;;;;;;4969140;28;20042;-81
2023/03/28 05:48:17;;;;;;;3.55;1.70;;;;;;;;;;4978453;28;20497;-80
2023/03/28 05:50:51;;;;;;;2.88;1.70;;;;;;;;;;4967571;28;20054;-80
2023/03/28 05:53:25;;;;;;;4.15;1.73;;;;;;;;;;4956610;28;20046;-80
2023/03/28 05:55:53;;;;;;;2.92;1.65;;;;;;;;;;4970869;28;20049;-80
2023/03/28 05:58:21;;;;;;;2.95;1.60;;;;;;;;;;4970267;28;20461;-81
2023/03/28 06:00:49;;;;;;;6.32;1.77;;;;;;;;;;4970294;28;20048;-81
2023/03/28 06:03:26;;;;;;;3.85;1.45;;;;;;;;;;4970213;28;20045;-81
2023/03/28 06:05:55;;;;;;;5.32;1.85;;;;;;;;;;4999377;28;20046;-79
2023/03/28 06:08:27;;;;;;;5.07;2.25;;;;;;;;;;4969762;28;20042;-79
2023/03/28 06:11:00;;;;;;;8.43;3.55;;;;;;;;;;4969950;28;20068;-79
2023/03/28 06:13:53;;;;;;;9.60;3.90;;;;;;;;;;5001854;28;20046;-79
2023/03/28 06:16:21;;;;;;;7.65;3.03;;;;;;;;;;5002802;28;20062;-79
2023/03/28 06:18:59;;;;;;;9.00;3.22;;;;;;;;;;4970069;28;20240;-79
2023/03/28 06:21:49;;;;;;;13.70;3.35;;;;;;;;;;5000805;28;20065;-79
2023/03/28 06:24:23;;;;;;;6.50;2.92;;;;;;;;;;4968165;28;20493;-79
2023/03/28 06:26:51;;;;;;;7.72;2.88;;;;;;;;;;4953960;28;20385;-79
2023/03/28 06:29:23;;;;;;;4.60;2.05;;;;;;;;;;4969590;28;20039;-79
2023/03/28 06:31:59;;;;;;;7.20;2.40;;;;;;;;;;4970645;28;20038;-79
2023/03/28 06:34:31;;;;;;;5.28;2.10;;;;;;;;;;5002922;28;20046;-79
2023/03/28 06:37:25;;;;;;;5.53;1.90;;;;;;;;;;5000963;28;20045;-79
2023/03/28 06:39:59;;;;;;;6.30;2.22;;;;;;;;;;4976487;28;20042;-79
2023/03/28 06:42:27;;;;;;;5.43;1.98;;;;;;;;;;4985980;28;20054;-79
2023/03/28 06:45:37;;;;;;;5.35;1.90;;;;;;;;;;4939186;28;20381;-80
2023/03/28 06:48:09;;;;;;;6.60;1.75;;;;;;;;;;4968086;28;20074;-80
2023/03/28 06:51:03;;;;;;;4.68;1.60;;;;;;;;;;4985118;28;20038;-79
2023/03/28 06:53:31;;;;;;;5.53;1.85;;;;;;;;;;4966822;28;20719;-80
2023/03/28 06:56:03;;;;;;;8.07;1.77;;;;;;;;;;4981460;28;20043;-80
2023/03/28 06:58:38;;;;;;;3.92;1.63;;;;;;;;;;4985626;28;20047;-79
2023/03/28 07:01:13;;;;;;;5.63;1.55;;;;;;;;;;4980385;28;20045;-80
2023/03/28 07:04:03;;;;;;;7.50;1.60;;;;;;;;;;4968019;28;20047;-80
2023/03/28 07:06:31;;;;;;;3.45;1.65;;;;;;;;;;4966801;28;20424;-80
2023/03/28 07:08:59;;;;;;;3.75;1.35;;;;;;;;;;4969473;28;20045;-80
2023/03/28 07:11:37;;;;;;;4.13;1.83;;;;;;;;;;4966543;28;20099;-80
2023/03/28 07:14:11;;;;;;;7.50;1.70;;;;;;;;;;4999485;28;20034;-80
2023/03/28 07:16:39;;;;;;;5.63;1.63;;;;;;;;;;4978860;28;20039;-79
2023/03/28 07:19:33;;;;;;;3.05;1.40;;;;;;;;;;4984431;28;20042;-79
2023/03/28 07:22:03;;;;;;;9.80;1.67;;;;;;;;;;4983337;28;20439;-80
2023/03/28 07:24:55;;;;;;;5.32;1.45;;;;;;;;;;5001014;28;20031;-79
2023/03/28 07:27:23;;;;;;;4.55;1.17;;;;;;;;;;4969226;28;20083;-80
2023/03/28 07:29:57;;;;;;;7.10;1.70;;;;;;;;;;4968195;28;20042;-80
2023/03/28 07:32:25;;;;;;;6.30;1.67;;;;;;;;;;4966162;28;20121;-80
2023/03/28 07:35:17;;;;;;;11.40;1.63;;;;;;;;;;4965615;28;20057;-80
2023/03/28 07:37:49;;;;;;;6.13;1.25;;;;;;;;;;4964746;28;20091;-80
2023/03/28 07:40:31;;;;;;;6.07;1.50;;;;;;;;;;4994860;28;20038;-80
2023/03/28 07:42:59;;;;;;;4.75;1.30;;;;;;;;;;4980129;28;20049;-80
2023/03/28 07:45:58;;;;;;;2.85;0.98;;;;;;;;;;4966821;28;20074;-80
2023/03/28 07:48:25;;;;;;;4.82;1.38;;;;;;;;;;4961460;28;20042;-80
2023/03/28 07:51:05;;;;;;;7.82;1.38;;;;;;;;;;4950401;28;20046;-80
2023/03/28 07:53:34;;;;;;;6.97;1.30;;;;;;;;;;4967160;28;20057;-80
2023/03/28 07:56:04;;;;;;;4.65;1.42;;;;;;;;;;4969103;28;20137;-80
2023/03/28 07:58:51;;;;;;;6.95;1.23;;;;;;;;;;4966735;28;20396;-80
2023/03/28 08:01:45;;;;;;;7.93;1.30;;;;;;;;;;4998064;28;20049;-80
2023/03/28 08:04:15;;;;;;;4.78;1.00;;;;;;;;;;4953676;28;20412;-80
2023/03/28 08:07:03;;;;;;;6.25;1.08;;;;;;;;;;4965875;28;20039;-81
2023/03/28 08:09:31;;;;;;;6.88;1.30;;;;;;;;;;4951596;28;23576;-81
2023/03/28 08:12:13;;;;;;;7.28;1.00;;;;;;;;;;4952999;28;20498;-79
2023/03/28 08:14:43;;;;;;;5.32;2.20;;;;;;;;;;4956875;28;20042;-79
2023/03/28 08:17:21;;;;;;;7.32;1.10;;;;;;;;;;4968427;28;20053;-79
2023/03/28 08:19:51;;;;;;;6.00;1.30;;;;;;;;;;4974287;28;20123;-79
2023/03/28 08:22:24;;;;;;;7.40;1.20;;;;;;;;;;4970216;28;20720;-79
2023/03/28 08:25:06;;;;;;;8.82;1.23;;;;;;;;;;4986039;28;20406;-79
2023/03/28 08:27:39;;;;;;;7.05;1.30;;;;;;;;;;4983607;28;20557;-79
2023/03/28 08:30:11;;;;;;;10.02;1.13;;;;;;;;;;4982918;28;20185;-79
2023/03/28 08:32:49;;;;;;;5.80;0.90;;;;;;;;;;4968187;28;20038;-79
2023/03/28 08:35:23;;;;;;;4.18;1.10;;;;;;;;;;4958048;28;20077;-79
2023/03/28 08:37:57;;;;;;;7.43;0.95;;;;;;;;;;4968929;28;20030;-79
2023/03/28 08:40:27;;;;;;;10.55;1.27;;;;;;;;;;4965208;28;20125;-79
2023/03/28 08:43:01;;;;;;;4.97;0.80;;;;;;;;;;4962333;28;20077;-79
2023/03/28 08:45:56;;;;;;;5.25;1.13;;;;;;;;;;4971725;28;20073;-79
2023/03/28 08:48:29;;;;;;;3.15;0.65;;;;;;;;;;4986504;28;20117;-79
2023/03/28 08:51:01;;;;;;;6.72;1.08;;;;;;;;;;4974797;28;20043;-79
2023/03/28 08:53:42;;;;;;;8.52;1.00;;;;;;;;;;4970195;28;20053;-79
2023/03/28 08:56:14;;;;;;;5.35;0.98;;;;;;;;;;4967853;28;20045;-79
2023/03/28 08:58:53;;;;;;;3.67;0.90;;;;;;;;;;5048894;28;20549;-79
2023/03/28 09:01:22;;;;;;;6.90;0.90;;;;;;;;;;4987443;28;20045;-79
2023/03/28 09:03:51;;;;;;;6.80;0.93;;;;;;;;;;4971266;28;20055;-79
2023/03/28 09:06:36;;;;;;;4.55;0.90;;;;;;;;;;5003419;28;20035;-79
2023/03/28 09:09:37;;;;;;;5.05;1.20;;;;;;;;;;4969602;28;20805;-79
2023/03/28 09:12:53;;;;;;;7.78;1.02;;;;;;;;;;4988344;28;20052;-79
2023/03/28 09:15:47;;;;;;;4.32;0.68;;;;;;;;;;4964516;28;20038;-79
2023/03/28 09:19:14;;;;;;;5.88;1.10;;;;;;;;;;4961856;28;20065;-79
2023/03/28 09:22:21;;;;;;;3.38;0.85;;;;;;;;;;4971345;28;20046;-79
2023/03/28 09:25:05;;;;;;;3.17;0.90;;;;;;;;;;5003534;28;20042;-79
2023/03/28 09:28:23;;;;;;;4.40;0.98;;;;;;;;;;4985267;28;20069;-79
2023/03/28 09:30:58;;;;;;;4.78;0.70;;;;;;;;;;4965744;28;20148;-79
2023/03/28 09:33:35;;;;;;;6.28;1.05;;;;;;;;;;4983847;28;20043;-79
2023/03/28 09:36:10;;;;;;;5.07;0.75;;;;;;;;;;4964315;28;20061;-79
2023/03/28 09:38:45;;;;;;;5.28;0.88;;;;;;;;;;5001257;28;20042;-79
2023/03/28 09:41:18;;;;;;;6.18;1.08;;;;;;;;;;4979388;28;21760;-79
2023/03/28 09:44:27;;;;;;;4.32;0.88;;;;;;;;;;4973817;28;21018;-80
2023/03/28 09:47:19;;;;;;;6.53;0.80;;;;;;;;;;4987114;28;20046;-80
2023/03/28 09:50:03;;;;;;;4.75;0.68;;;;;;;;;;4969407;28;20055;-80
2023/03/28 09:52:45;;;;;;;4.55;0.75;;;;;;;;;;4969118;28;20153;-81
2023/03/28 09:55:19;;;;;;;5.95;0.93;;;;;;;;;;4994516;28;20984;-80
2023/03/28 09:58:09;;;;;;;2.95;0.82;;;;;;;;;;4964871;28;20508;-79
2023/03/28 10:00:55;;;;;;;4.38;0.90;;;;;;;;;;4986346;28;20121;-80
2023/03/28 10:07:11;;;;;;;6.68;1.10;;;;;;;;;;4967815;28;20559;-80
2023/03/28 10:09:49;;;;;;;7.30;1.30;;;;;;;;;;4983640;28;20065;-80
2023/03/28 10:12:23;;;;;;;8.85;1.42;;;;;;;;;;4966963;28;20574;-79
2023/03/28 10:14:57;;;;;;;5.85;1.33;;;;;;;;;;4964954;28;20034;-79
2023/03/28 10:17:43;;;;;;;4.78;1.27;;;;;;;;;;4982394;28;20046;-80
2023/03/28 10:20:20;;;;;;;6.63;1.17;;;;;;;;;;4951613;28;20038;-80
2023/03/28 10:22:55;;;;;;;6.72;1.10;;;;;;;;;;4952214;28;20054;-80
2023/03/28 10:25:39;;;;;;;7.80;1.15;;;;;;;;;;4983225;28;20061;-80
2023/03/28 10:28:30;;;;;;;6.30;1.17;;;;;;;;;;4960085;28;20056;-80
2023/03/28 10:31:04;;;;;;;7.72;1.35;;;;;;;;;;4997171;28;20054;-79
2023/03/28 10:33:58;;;;;;;5.38;1.45;;;;;;;;;;4987121;28;20536;-80
2023/03/28 10:36:55;;;;;;;7.53;1.35;;;;;;;;;;4979676;28;20053;-80
2023/03/28 10:39:31;;;;;;;6.90;1.20;;;;;;;;;;4950375;28;20042;-79
2023/03/28 10:42:17;;;;;;;8.32;1.85;;;;;;;;;;4972547;28;20046;-80
2023/03/28 10:45:01;;;;;;;4.10;1.17;;;;;;;;;;4983708;28;20041;-80
2023/03/28 10:47:31;;;;;;;5.18;1.15;;;;;;;;;;4945852;28;20050;-79
2023/03/28 10:50:35;;;;;;;4.30;1.10;;;;;;;;;;4996293;28;20038;-80
2023/03/28 10:53:36;;;;;;;4.43;0.95;;;;;;;;;;4981442;28;20130;-80
2023/03/28 10:56:37;;;;;;;3.03;1.10;;;;;;;;;;4998146;28;20030;-79
2023/03/28 10:59:29;;;;;;;5.88;0.90;;;;;;;;;;4953606;28;20482;-80
2023/03/28 11:02:11;;;;;;;5.78;1.10;;;;;;;;;;4968461;28;20042;-80
2023/03/28 11:05:21;;;;;;;8.27;1.92;;;;;;;;;;4961094;28;20129;-80
2023/03/28 11:08:14;;;;;;;7.43;1.35;;;;;;;;;;5001686;28;20050;-80
2023/03/28 11:14:11;;;;;;;1.85;0.60;;;;;;;;;;4982734;28;20046;-80
2023/03/28 11:16:50;;;;;;;4.05;0.88;;;;;;;;;;4962106;28;20058;-80
2023/03/28 11:20:09;;;;;;;4.63;0.95;;;;;;;;;;4963308;28;20037;-79
2023/03/28 11:23:17;;;;;;;3.78;0.77;;;;;;;;;;4982896;28;20399;-80
2023/03/28 11:26:22;;;;;;;8.68;0.88;;;;;;;;;;4983271;28;20119;-80
2023/03/28 11:29:26;;;;;;;4.97;0.80;;;;;;;;;;4924068;28;20223;-80
2023/03/28 11:32:20;;;;;;;3.92;0.75;;;;;;;;;;4910936;28;20059;-80
2023/03/28 11:35:14;;;;;;;5.63;0.82;;;;;;;;;;4987664;28;20047;-80
2023/03/28 11:37:57;;;;;;;3.90;0.73;;;;;;;;;;4924329;28;20580;-80
2023/03/28 11:40:44;;;;;;;6.75;0.75;;;;;;;;;;4928735;28;20585;-79
2023/03/28 11:43:20;;;;;;;7.70;0.93;;;;;;;;;;4909102;29;20044;-79
2023/03/28 11:45:54;;;;;;;2.50;0.40;;;;;;;;;;4931758;28;20055;-80
2023/03/28 11:48:35;;;;;;;7.30;0.80;;;;;;;;;;4924528;28;20675;-80
2023/03/28 11:51:18;;;;;;;6.38;1.33;;;;;;;;;;4941878;28;20541;-79
2023/03/28 11:54:01;;;;;;;3.13;0.55;;;;;;;;;;4939238;28;20055;-79
2023/03/28 11:56:50;;;;;;;4.03;0.70;;;;;;;;;;4993725;28;21413;-79
2023/03/28 11:59:23;;;;;;;7.40;1.10;;;;;;;;;;4926045;28;20051;-79
2023/03/28 12:02:10;;;;;;;4.35;1.00;;;;;;;;;;4944226;28;20134;-79
2023/03/28 12:04:47;;;;;;;4.90;1.00;;;;;;;;;;4927492;28;20464;-79
2023/03/28 12:07:21;;;;;;;3.83;0.75;;;;;;;;;;4954173;28;20061;-79
2023/03/28 12:10:02;;;;;;;2.97;0.70;;;;;;;;;;4960357;28;20038;-79
2023/03/28 12:12:37;;;;;;;3.80;1.17;;;;;;;;;;4954704;28;20137;-80
2023/03/28 12:18:30;;;;;;;5.80;0.77;;;;;;;;;;4999602;28;20039;-79
2023/03/28 12:21:07;;;;;;;4.28;0.65;;;;;;;;;;4982330;28;20052;-79
2023/03/28 12:24:05;;;;;;;7.10;1.00;;;;;;;;;;4971869;28;20069;-79
2023/03/28 12:26:47;;;;;;;7.82;1.13;;;;;;;;;;4951936;28;20519;-79
2023/03/28 12:29:26;;;;;;;6.95;1.08;;;;;;;;;;4973389;28;21164;-80
2023/03/28 12:32:25;;;;;;;3.58;0.77;;;;;;;;;;4962353;28;20104;-80
2023/03/28 12:35:16;;;;;;;4.25;0.63;;;;;;;;;;4966216;28;20051;-79
2023/03/28 12:38:11;;;;;;;5.18;0.85;;;;;;;;;;4981032;28;20062;-80
2023/03/28 12:41:02;;;;;;;4.20;0.68;;;;;;;;;;4985887;28;20146;-79
2023/03/28 12:43:52;;;;;;;4.78;0.98;;;;;;;;;;4969352;28;20042;-79
2023/03/28 12:46:36;;;;;;;5.88;1.10;;;;;;;;;;4965912;28;20034;-79
2023/03/28 12:49:15;;;;;;;5.85;1.00;;;;;;;;;;4995727;28;20422;-79
2023/03/28 12:51:57;;;;;;;2.08;0.82;;;;;;;;;;4968347;28;20042;-80
2023/03/28 12:54:32;;;;;;;3.35;0.90;;;;;;;;;;4966805;28;20396;-79
2023/03/28 12:57:44;;;;;;;6.28;1.00;;;;;;;;;;4971056;28;20408;-79
2023/03/28 13:01:08;;;;;;;8.13;1.35;;;;;;;;;;4979617;28;20026;-80
2023/03/28 13:04:11;;;;;;;4.63;1.00;;;;;;;;;;4982446;28;20058;-80
2023/03/28 13:07:51;;;;;;;4.53;0.65;;;;;;;;;;4985390;28;20078;-80
2023/03/28 13:10:45;;;;;;;7.25;0.90;;;;;;;;;;4983310;28;21773;-80
2023/03/28 13:13:25;;;;;;;2.95;0.60;;;;;;;;;;4972871;28;20057;-80
2023/03/28 13:15:59;;;;;;;4.60;0.80;;;;;;;;;;4980777;28;20095;-77
2023/03/28 13:18:32;;;;;;;3.90;0.70;;;;;;;;;;4965181;28;20580;-77
2023/03/28 13:21:06;;;;;;;7.35;0.82;;;;;;;;;;4963929;28;20488;-77
2023/03/28 13:23:43;;;;;;;2.75;1.02;;;;;;;;;;4980506;28;20069;-78
2023/03/28 13:26:11;;;;;;;5.07;1.20;;;;;;;;;;4983119;28;20038;-78
2023/03/28 13:28:49;;;;;;;5.38;0.90;;;;;;;;;;4981519;28;20046;-78
2023/03/28 13:31:17;;;;;;;9.18;0.80;;;;;;;;;;4967681;28;20135;-79
2023/03/28 13:33:53;;;;;;;5.18;1.05;;;;;;;;;;4984345;28;20087;-79
2023/03/28 13:36:35;;;;;;;3.88;0.90;;;;;;;;;;4968400;28;20038;-78
2023/03/28 13:39:23;;;;;;;9.70;1.10;;;;;;;;;;4982194;28;20084;-78
2023/03/28 13:41:51;;;;;;;4.72;1.02;;;;;;;;;;4981825;28;20049;-79
2023/03/28 13:44:45;;;;;;;5.90;1.17;;;;;;;;;;4982159;28;20034;-79
2023/03/28 13:47:21;;;;;;;8.82;1.10;;;;;;;;;;4984116;28;20038;-79
2023/03/28 13:50:00;;;;;;;4.07;1.40;;;;;;;;;;4985072;28;20108;-78
2023/03/28 13:52:29;;;;;;;11.93;1.23;;;;;;;;;;4969080;28;20136;-79
2023/03/28 13:55:02;;;;;;;6.32;1.05;;;;;;;;;;4985011;28;20039;-79
2023/03/28 13:57:31;;;;;;;6.15;1.40;;;;;;;;;;4984966;28;20083;-78
2023/03/28 14:00:04;;;;;;;8.05;1.17;;;;;;;;;;4984145;28;20038;-79
2023/03/28 14:02:44;;;;;;;6.07;1.17;;;;;;;;;;4983827;28;20061;-79
2023/03/28 14:05:23;;;;;;;5.38;1.08;;;;;;;;;;4984814;28;20077;-79
2023/03/28 14:07:53;;;;;;;10.07;1.30;;;;;;;;;;4986019;28;20107;-78
2023/03/28 14:10:46;;;;;;;5.05;1.42;;;;;;;;;;4982937;28;20060;-79
2023/03/28 14:13:25;;;;;;;7.88;1.40;;;;;;;;;;4972624;28;20047;-78
2023/03/28 14:16:42;;;;;;;3.65;1.00;;;;;;;;;;4989906;28;20511;-78
2023/03/28 14:19:18;;;;;;;5.20;1.35;;;;;;;;;;4987295;28;20121;-79
2023/03/28 14:21:49;;;;;;;6.75;1.30;;;;;;;;;;4969406;28;20083;-79
2023/03/28 14:24:22;;;;;;;10.05;1.60;;;;;;;;;;4969975;28;20506;-79
2023/03/28 14:27:03;;;;;;;2.97;0.80;;;;;;;;;;4982584;28;20496;-79
2023/03/28 14:29:31;;;;;;;5.78;1.45;;;;;;;;;;4972946;28;20034;-78
2023/03/28 14:32:30;;;;;;;6.78;1.65;;;;;;;;;;4983728;28;20061;-78
2023/03/28 14:35:16;;;;;;;8.30;1.70;;;;;;;;;;4986150;28;20488;-79
2023/03/28 14:37:54;;;;;;;10.75;1.33;;;;;;;;;;4984808;28;20069;-78
2023/03/28 14:40:23;;;;;;;6.25;1.50;;;;;;;;;;4985995;28;20038;-79
2023/03/28 14:43:01;;;;;;;6.75;1.27;;;;;;;;;;4966658;28;20518;-78
2023/03/28 14:46:04;;;;;;;4.72;0.93;;;;;;;;;;4985285;28;20042;-79
2023/03/28 14:48:35;;;;;;;6.50;1.27;;;;;;;;;;4968588;28;20053;-78
2023/03/28 14:51:12;;;;;;;7.40;1.15;;;;;;;;;;4985064;28;20062;-78
2023/03/28 14:53:45;;;;;;;8.60;1.63;;;;;;;;;;4982024;28;20042;-79
2023/03/28 14:56:20;;;;;;;9.93;1.67;;;;;;;;;;4981840;28;20034;-78
2023/03/28 14:59:01;;;;;;;8.32;1.48;;;;;;;;;;4965714;28;20134;-79
2023/03/28 15:01:30;;;;;;;5.35;1.40;;;;;;;;;;4999570;28;20038;-79
2023/03/28 15:04:07;;;;;;;4.15;1.23;;;;;;;;;;4996336;28;20043;-79
2023/03/28 15:06:37;;;;;;;6.10;1.10;;;;;;;;;;4987540;28;20119;-78
2023/03/28 15:09:16;;;;;;;5.05;1.30;;;;;;;;;;4987869;28;20518;-79
2023/03/28 15:11:45;;;;;;;4.95;1.02;;;;;;;;;;4985218;28;20043;-78
2023/03/28 15:14:29;;;;;;;6.90;1.50;;;;;;;;;;4999164;28;20046;-78
2023/03/28 15:16:58;;;;;;;7.70;1.40;;;;;;;;;;4965652;28;20119;-79
2023/03/28 15:19:32;;;;;;;7.05;1.55;;;;;;;;;;5001156;28;20039;-78
2023/03/28 15:22:11;;;;;;;7.72;1.40;;;;;;;;;;4981440;28;21778;-79
2023/03/28 15:24:40;;;;;;;7.43;1.77;;;;;;;;;;4980316;28;20523;-79
2023/03/28 15:27:23;;;;;;;5.78;1.13;;;;;;;;;;4979084;28;20046;-78
2023/03/28 15:29:51;;;;;;;6.88;1.60;;;;;;;;;;4984410;28;20046;-78
2023/03/28 15:32:19;;;;;;;8.00;1.48;;;;;;;;;;4966626;28;20129;-79
2023/03/28 15:35:42;;;;;;;5.13;1.10;;;;;;;;;;4982322;28;20045;-79
2023/03/28 15:38:12;;;;;;;14.65;1.70;;;;;;;;;;4964471;28;20483;-78
2023/03/28 15:40:41;;;;;;;6.38;1.50;;;;;;;;;;4997081;28;20529;-79
2023/03/28 15:43:33;;;;;;;5.82;1.50;;;;;;;;;;4983209;28;20057;-78
2023/03/28 15:46:13;;;;;;;7.03;1.58;;;;;;;;;;4979673;28;20923;-78
2023/03/28 15:48:41;;;;;;;9.48;1.17;;;;;;;;;;4945968;28;20453;-79
2023/03/28 15:51:49;;;;;;;10.73;1.80;;;;;;;;;;4977581;28;20065;-79
2023/03/28 15:54:17;;;;;;;8.88;1.60;;;;;;;;;;4984228;28;20043;-79
2023/03/28 15:57:05;;;;;;;7.03;1.70;;;;;;;;;;4984220;28;20046;-79
2023/03/28 15:59:35;;;;;;;7.95;1.83;;;;;;;;;;4978043;28;21342;-79
2023/03/28 16:02:30;;;;;;;13.45;2.08;;;;;;;;;;4992609;28;20859;-79
2023/03/28 16:05:06;;;;;;;6.28;1.55;;;;;;;;;;4979660;28;20050;-80
2023/03/28 16:07:45;;;;;;;7.07;1.98;;;;;;;;;;4950588;28;20046;-79
2023/03/28 16:10:17;;;;;;;12.50;2.05;;;;;;;;;;4969510;28;21025;-80
2023/03/28 16:13:13;;;;;;;9.43;1.60;;;;;;;;;;4998934;28;20062;-79
2023/03/28 16:15:53;;;;;;;9.77;1.92;;;;;;;;;;5000434;28;20044;-80
2023/03/28 16:18:35;;;;;;;8.73;1.60;;;;;;;;;;4988640;28;20042;-79
2023/03/28 16:21:03;;;;;;;8.15;1.80;;;;;;;;;;5005856;28;20049;-80
2023/03/28 16:23:31;;;;;;;7.30;1.85;;;;;;;;;;5020205;28;20512;-80